createdAt,value
2018-03-31T00:00:24.828Z,99.90
2018-03-31T00:02:52.692Z,99.90
2018-03-31T00:05:20.487Z,99.90
2018-03-31T00:07:47.437Z,99.90
2018-03-31T00:10:14.415Z,99.90
2018-03-31T00:12:41.394Z,99.90
2018-03-31T00:15:09.137Z,99.90
2018-03-31T00:17:36.129Z,99.90
2018-03-31T00:20:03.106Z,99.90
2018-03-31T00:22:30.098Z,99.90
2018-03-31T00:24:57.296Z,99.90
2018-03-31T00:27:24.264Z,99.90
2018-03-31T00:29:51.243Z,99.90
2018-03-31T00:32:18.977Z,99.90
2018-03-31T00:34:45.969Z,99.90
2018-03-31T00:37:13.018Z,99.90
2018-03-31T00:39:39.990Z,99.90
2018-03-31T00:42:06.971Z,99.90
2018-03-31T00:44:33.946Z,99.90
2018-03-31T00:47:01.692Z,99.90
2018-03-31T00:49:28.680Z,99.90
2018-03-31T00:51:55.665Z,99.90
2018-03-31T00:54:22.671Z,99.90
2018-03-31T00:56:49.655Z,99.90
2018-03-31T00:59:16.632Z,99.90
2018-03-31T01:01:44.383Z,99.90
2018-03-31T01:04:12.131Z,99.90
2018-03-31T01:06:39.116Z,99.90
2018-03-31T01:09:06.111Z,99.90
2018-03-31T01:11:33.852Z,99.90
2018-03-31T01:14:00.852Z,99.90
2018-03-31T01:16:27.808Z,99.90
2018-03-31T01:18:55.562Z,99.90
2018-03-31T01:21:23.298Z,99.90
2018-03-31T01:23:50.259Z,99.90
2018-03-31T01:26:17.266Z,99.90
2018-03-31T01:28:44.224Z,99.90
2018-03-31T01:31:11.218Z,99.90
2018-03-31T01:33:38.979Z,99.90
2018-03-31T01:36:06.719Z,99.90
2018-03-31T01:38:33.710Z,99.90
2018-03-31T01:41:00.683Z,99.90
2018-03-31T01:43:27.672Z,99.90
2018-03-31T01:45:55.607Z,99.90
2018-03-31T01:48:22.582Z,99.90
2018-03-31T01:50:49.570Z,99.90
2018-03-31T01:53:16.543Z,99.90
2018-03-31T01:55:43.536Z,99.90
2018-03-31T01:58:11.278Z,99.90
2018-03-31T02:00:38.286Z,99.90
2018-03-31T02:03:05.289Z,99.90
2018-03-31T02:05:32.270Z,99.90
2018-03-31T02:07:59.276Z,99.90
2018-03-31T02:10:27.042Z,99.90
2018-03-31T02:12:55.786Z,99.90
2018-03-31T02:15:22.763Z,99.90
2018-03-31T02:17:49.722Z,99.90
2018-03-31T02:20:17.515Z,99.90
2018-03-31T02:22:44.476Z,99.90
2018-03-31T02:25:12.217Z,99.90
2018-03-31T02:27:39.222Z,99.90
2018-03-31T02:30:06.191Z,99.90
2018-03-31T02:32:33.948Z,99.90
2018-03-31T02:35:01.699Z,99.90
2018-03-31T02:37:28.685Z,99.90
2018-03-31T02:39:55.679Z,99.90
2018-03-31T02:42:22.654Z,99.90
2018-03-31T02:44:50.412Z,99.90
2018-03-31T02:47:17.379Z,99.90
2018-03-31T02:49:44.352Z,99.90
2018-03-31T02:52:11.339Z,99.90
2018-03-31T02:54:38.335Z,99.90
2018-03-31T02:57:05.323Z,99.90
2018-03-31T02:59:32.298Z,99.90
2018-03-31T03:01:59.273Z,99.90
2018-03-31T03:04:26.259Z,99.90
2018-03-31T03:06:53.240Z,99.90
2018-03-31T03:09:20.235Z,99.90
2018-03-31T03:11:47.201Z,99.90
2018-03-31T03:14:14.188Z,99.90
2018-03-31T03:16:41.177Z,99.90
2018-03-31T03:19:08.168Z,99.90
2018-03-31T03:21:35.154Z,99.90
2018-03-31T03:24:02.137Z,99.90
2018-03-31T03:26:31.413Z,99.90
2018-03-31T03:28:58.412Z,99.90
2018-03-31T03:31:25.405Z,99.90
2018-03-31T03:33:52.406Z,99.90
2018-03-31T03:36:19.377Z,99.90
2018-03-31T03:38:46.371Z,99.90
2018-03-31T03:41:14.122Z,99.90
2018-03-31T03:43:41.102Z,99.90
2018-03-31T03:46:08.092Z,99.90
2018-03-31T03:48:35.083Z,99.90
2018-03-31T03:51:02.832Z,99.90
2018-03-31T03:53:29.829Z,99.90
2018-03-31T03:55:56.818Z,99.90
2018-03-31T03:58:23.818Z,99.90
2018-03-31T04:00:50.802Z,99.90
2018-03-31T04:03:17.821Z,99.90
2018-03-31T04:05:44.848Z,99.90
2018-03-31T04:08:11.837Z,99.90
2018-03-31T04:10:38.823Z,99.90
2018-03-31T04:13:06.560Z,99.90
2018-03-31T04:15:33.565Z,99.90
2018-03-31T04:18:00.595Z,99.90
2018-03-31T04:20:27.594Z,99.90
2018-03-31T04:22:54.605Z,99.90
2018-03-31T04:25:21.557Z,99.90
2018-03-31T04:27:48.540Z,99.90
2018-03-31T04:30:15.527Z,99.90
2018-03-31T04:32:42.508Z,99.90
2018-03-31T04:35:09.511Z,99.90
2018-03-31T04:37:37.247Z,99.90
2018-03-31T04:40:04.234Z,99.90
2018-03-31T04:42:31.225Z,99.90
2018-03-31T04:44:58.209Z,99.90
2018-03-31T04:47:25.197Z,99.90
2018-03-31T04:49:52.986Z,99.90
2018-03-31T04:52:19.982Z,99.90
2018-03-31T04:54:46.980Z,99.90
2018-03-31T04:57:13.980Z,99.90
2018-03-31T04:59:40.967Z,99.90
2018-03-31T05:02:07.968Z,99.90
2018-03-31T05:04:35.027Z,99.90
2018-03-31T05:07:02.247Z,99.90
2018-03-31T05:09:29.449Z,99.90
2018-03-31T05:11:56.699Z,99.90
2018-03-31T05:14:23.707Z,99.90
2018-03-31T05:16:50.782Z,99.90
2018-03-31T05:19:17.820Z,99.90
2018-03-31T05:21:44.795Z,99.90
2018-03-31T05:24:11.800Z,99.90
2018-03-31T05:26:38.807Z,99.90
2018-03-31T05:29:05.787Z,99.90
2018-03-31T05:31:32.801Z,99.90
2018-03-31T05:33:59.777Z,99.90
2018-03-31T05:36:26.808Z,99.90
2018-03-31T05:38:54.556Z,99.90
2018-03-31T05:41:21.553Z,99.90
2018-03-31T05:43:48.543Z,99.90
2018-03-31T05:46:15.506Z,99.90
2018-03-31T05:48:42.492Z,99.90
2018-03-31T05:51:09.476Z,99.90
2018-03-31T05:53:36.458Z,99.90
2018-03-31T05:56:03.444Z,99.90
2018-03-31T05:58:30.469Z,99.90
2018-03-31T06:00:57.455Z,99.90
2018-03-31T06:03:24.447Z,99.90
2018-03-31T06:05:51.504Z,99.90
2018-03-31T06:08:18.507Z,99.90
2018-03-31T06:10:45.484Z,99.90
2018-03-31T06:13:12.489Z,99.90
2018-03-31T06:15:39.469Z,99.90
2018-03-31T06:18:06.450Z,99.90
2018-03-31T06:20:33.451Z,99.90
2018-03-31T06:23:00.426Z,99.90
2018-03-31T06:25:28.186Z,99.90
2018-03-31T06:27:55.176Z,99.90
2018-03-31T06:30:22.150Z,99.90
2018-03-31T06:32:49.895Z,99.90
2018-03-31T06:35:16.879Z,99.90
2018-03-31T06:37:43.854Z,99.90
2018-03-31T06:40:10.819Z,99.90
2018-03-31T06:42:37.791Z,99.90
2018-03-31T06:45:05.550Z,99.90
2018-03-31T06:47:32.513Z,99.90
2018-03-31T06:50:00.266Z,99.90
2018-03-31T06:52:27.237Z,99.90
2018-03-31T06:54:54.284Z,99.90
2018-03-31T06:57:22.068Z,99.90
2018-03-31T06:59:50.025Z,99.90
2018-03-31T07:02:17.231Z,99.90
2018-03-31T07:04:45.066Z,99.90
2018-03-31T07:07:12.088Z,99.90
2018-03-31T07:09:39.306Z,99.90
2018-03-31T07:12:06.330Z,99.90
2018-03-31T07:14:33.346Z,99.90
2018-03-31T07:17:00.344Z,99.90
2018-03-31T07:19:27.316Z,99.90
2018-03-31T07:21:54.322Z,99.90
2018-03-31T07:24:21.931Z,99.90
2018-03-31T07:26:49.083Z,99.90
2018-03-31T07:29:16.222Z,99.90
2018-03-31T07:31:50.637Z,99.90
2018-03-31T07:34:17.664Z,99.90
2018-03-31T07:36:46.088Z,99.90
2018-03-31T07:39:13.075Z,99.90
2018-03-31T07:41:40.047Z,99.90
2018-03-31T07:44:07.017Z,99.90
2018-03-31T07:46:33.999Z,99.90
2018-03-31T07:49:00.979Z,99.90
2018-03-31T07:51:29.112Z,99.90
2018-03-31T07:53:56.642Z,99.90
2018-03-31T07:56:23.811Z,99.90
2018-03-31T07:58:50.948Z,99.90
2018-03-31T08:01:18.040Z,99.90
2018-03-31T08:03:46.001Z,99.90
2018-03-31T08:06:12.964Z,99.90
2018-03-31T08:08:39.942Z,99.90
2018-03-31T08:11:06.943Z,99.90
2018-03-31T08:13:33.913Z,99.90
2018-03-31T08:16:00.908Z,99.20
2018-03-31T08:18:27.944Z,99.70
2018-03-31T08:20:54.990Z,99.20
2018-03-31T08:23:22.032Z,97.10
2018-03-31T08:25:49.201Z,97.00
2018-03-31T08:28:16.278Z,96.50
2018-03-31T08:30:43.339Z,97.30
2018-03-31T08:33:10.583Z,96.10
2018-03-31T08:35:38.539Z,96.50
2018-03-31T08:38:05.609Z,96.50
2018-03-31T08:40:32.599Z,96.70
2018-03-31T08:42:59.575Z,97.50
2018-03-31T08:45:26.540Z,97.80
2018-03-31T08:47:54.069Z,96.80
2018-03-31T08:50:21.062Z,96.20
2018-03-31T08:52:48.856Z,96.10
2018-03-31T08:55:15.831Z,96.50
2018-03-31T08:57:42.818Z,96.60
2018-03-31T09:00:09.842Z,96.70
2018-03-31T09:02:36.806Z,96.60
2018-03-31T09:05:04.053Z,96.20
2018-03-31T09:07:31.823Z,96.50
2018-03-31T09:09:58.821Z,94.70
2018-03-31T09:12:25.803Z,93.30
2018-03-31T09:14:53.473Z,91.90
2018-03-31T09:17:20.457Z,91.30
2018-03-31T09:19:47.429Z,91.40
2018-03-31T09:22:15.028Z,91.70
2018-03-31T09:24:44.450Z,90.10
2018-03-31T09:27:09.087Z,90.30
2018-03-31T09:29:36.085Z,87.90
2018-03-31T09:32:03.054Z,84.20
2018-03-31T09:34:31.143Z,84.60
2018-03-31T09:36:58.136Z,81.40
2018-03-31T09:39:25.138Z,81.60
2018-03-31T09:41:53.045Z,82.90
2018-03-31T09:44:20.776Z,81.30
2018-03-31T09:46:47.769Z,81.00
2018-03-31T09:49:17.785Z,81.50
2018-03-31T09:51:45.325Z,81.00
2018-03-31T09:54:12.298Z,80.10
2018-03-31T09:56:39.277Z,80.90
2018-03-31T09:59:06.266Z,79.90
2018-03-31T10:01:35.761Z,77.60
2018-03-31T10:04:02.755Z,77.60
2018-03-31T10:06:29.770Z,82.10
2018-03-31T10:08:57.510Z,77.90
2018-03-31T10:11:24.490Z,78.00
2018-03-31T10:13:51.517Z,75.20
2018-03-31T10:16:18.496Z,72.30
2018-03-31T10:18:46.258Z,75.60
2018-03-31T10:21:13.257Z,75.60
2018-03-31T10:23:40.253Z,75.10
2018-03-31T10:26:07.260Z,77.70
2018-03-31T10:28:34.998Z,71.90
2018-03-31T10:31:01.991Z,71.90
2018-03-31T10:33:28.966Z,74.40
2018-03-31T10:35:55.929Z,73.20
2018-03-31T10:38:22.920Z,71.00
2018-03-31T10:40:50.662Z,70.30
2018-03-31T10:43:17.657Z,70.20
2018-03-31T10:45:44.634Z,70.90
2018-03-31T10:48:11.600Z,70.90
2018-03-31T10:50:39.006Z,71.50
2018-03-31T10:53:05.983Z,73.90
2018-03-31T10:55:32.981Z,75.60
2018-03-31T10:58:00.554Z,72.00
2018-03-31T11:00:27.714Z,66.40
2018-03-31T11:02:54.684Z,68.60
2018-03-31T11:05:21.674Z,67.20
2018-03-31T11:07:48.670Z,67.10
2018-03-31T11:10:15.638Z,69.90
2018-03-31T11:12:42.606Z,68.90
2018-03-31T11:15:09.590Z,66.20
2018-03-31T11:17:36.618Z,66.20
2018-03-31T11:20:03.614Z,65.40
2018-03-31T11:22:30.703Z,64.50
2018-03-31T11:24:57.698Z,68.40
2018-03-31T11:27:24.719Z,66.70
2018-03-31T11:29:51.716Z,66.40
2018-03-31T11:32:19.570Z,68.00
2018-03-31T11:34:46.597Z,68.00
2018-03-31T11:37:13.622Z,71.80
2018-03-31T11:39:40.678Z,68.80
2018-03-31T11:42:07.762Z,66.40
2018-03-31T11:44:34.720Z,67.10
2018-03-31T11:47:01.718Z,65.50
2018-03-31T11:49:28.690Z,60.60
2018-03-31T11:51:57.030Z,62.80
2018-03-31T11:54:24.012Z,63.90
2018-03-31T11:56:51.002Z,64.40
2018-03-31T11:59:17.981Z,66.60
2018-03-31T12:01:44.965Z,64.90
2018-03-31T12:04:11.986Z,59.50
2018-03-31T12:06:38.965Z,60.60
2018-03-31T12:09:06.708Z,61.40
2018-03-31T12:11:33.731Z,61.30
2018-03-31T12:14:00.719Z,63.00
2018-03-31T12:16:28.468Z,64.00
2018-03-31T12:18:56.285Z,60.60
2018-03-31T12:21:23.272Z,60.00
2018-03-31T12:23:50.307Z,56.70
2018-03-31T12:26:17.355Z,56.80
2018-03-31T12:28:44.351Z,53.70
2018-03-31T12:31:11.317Z,57.20
2018-03-31T12:33:38.302Z,59.90
2018-03-31T12:36:05.280Z,62.50
2018-03-31T12:38:32.267Z,60.00
2018-03-31T12:40:59.283Z,59.30
2018-03-31T12:43:27.012Z,62.50
2018-03-31T12:45:53.998Z,62.50
2018-03-31T12:48:21.738Z,62.80
2018-03-31T12:50:49.460Z,61.00
2018-03-31T12:53:16.459Z,61.00
2018-03-31T12:55:44.215Z,61.50
2018-03-31T12:58:11.189Z,61.40
2018-03-31T13:00:38.213Z,62.90
2018-03-31T13:03:05.187Z,65.70
2018-03-31T13:05:32.159Z,61.80
2018-03-31T13:07:59.132Z,62.70
2018-03-31T13:10:26.098Z,63.30
2018-03-31T13:12:53.856Z,65.60
2018-03-31T13:15:21.601Z,64.90
2018-03-31T13:17:48.580Z,65.30
2018-03-31T13:20:15.565Z,65.60
2018-03-31T13:22:42.531Z,68.30
2018-03-31T13:25:09.534Z,66.50
2018-03-31T13:27:36.940Z,66.10
2018-03-31T13:30:03.910Z,68.40
2018-03-31T13:32:31.684Z,68.40
2018-03-31T13:34:58.758Z,68.50
2018-03-31T13:37:25.759Z,67.60
2018-03-31T13:39:52.752Z,67.30
2018-03-31T13:42:19.773Z,64.20
2018-03-31T13:44:46.866Z,62.80
2018-03-31T13:47:13.881Z,64.60
2018-03-31T13:49:40.883Z,64.40
2018-03-31T13:52:07.882Z,63.80
2018-03-31T13:54:34.852Z,66.10
2018-03-31T13:57:01.860Z,67.60
2018-03-31T13:59:28.836Z,67.30
2018-03-31T14:01:55.813Z,66.60
2018-03-31T14:04:22.775Z,66.60
2018-03-31T14:06:50.534Z,66.80
2018-03-31T14:09:17.563Z,66.90
2018-03-31T14:11:44.550Z,65.90
2018-03-31T14:14:11.560Z,64.00
2018-03-31T14:16:38.557Z,59.10
2018-03-31T14:19:05.558Z,57.00
2018-03-31T14:21:32.574Z,48.60
2018-03-31T14:23:59.542Z,42.90
2018-03-31T14:26:27.307Z,36.70
2018-03-31T14:28:54.275Z,36.50
2018-03-31T14:31:22.010Z,31.30
2018-03-31T14:33:49.129Z,31.20
2018-03-31T14:36:16.117Z,31.70
2018-03-31T14:38:43.904Z,29.70
2018-03-31T14:41:10.943Z,29.60
2018-03-31T14:43:37.857Z,35.70
2018-03-31T14:46:04.864Z,40.90
2018-03-31T14:48:31.847Z,44.40
2018-03-31T14:50:58.898Z,46.20
2018-03-31T14:53:26.753Z,55.80
2018-03-31T14:55:54.528Z,55.70
2018-03-31T14:58:21.531Z,53.80
2018-03-31T15:00:48.503Z,55.20
2018-03-31T15:03:15.553Z,57.70
2018-03-31T15:05:42.535Z,58.70
2018-03-31T15:08:10.605Z,60.50
2018-03-31T15:10:37.631Z,60.40
2018-03-31T15:13:05.339Z,60.40
2018-03-31T15:15:32.335Z,60.30
2018-03-31T15:17:59.311Z,60.10
2018-03-31T15:20:27.034Z,57.70
2018-03-31T15:22:54.021Z,57.70
2018-03-31T15:25:21.755Z,61.80
2018-03-31T15:27:48.739Z,61.80
2018-03-31T15:30:15.714Z,61.90
2018-03-31T15:32:42.688Z,63.80
2018-03-31T15:35:09.678Z,64.00
2018-03-31T15:37:36.719Z,67.30
2018-03-31T15:40:04.616Z,70.00
2018-03-31T15:42:31.611Z,71.70
2018-03-31T15:44:58.599Z,72.90
2018-03-31T15:47:25.650Z,73.50
2018-03-31T15:49:53.493Z,74.00
2018-03-31T15:52:20.540Z,73.70
2018-03-31T15:54:48.409Z,75.40
2018-03-31T15:57:15.410Z,75.40
2018-03-31T15:59:42.416Z,74.30
2018-03-31T16:02:09.461Z,76.40
2018-03-31T16:04:37.006Z,74.90
2018-03-31T16:07:04.425Z,75.00
2018-03-31T16:09:31.433Z,76.90
2018-03-31T16:11:58.478Z,76.40
2018-03-31T16:14:25.485Z,76.50
2018-03-31T16:16:52.562Z,75.50
2018-03-31T16:19:19.739Z,76.90
2018-03-31T16:21:46.770Z,76.80
2018-03-31T16:24:13.812Z,75.20
2018-03-31T16:26:40.819Z,75.00
2018-03-31T16:29:07.845Z,74.00
2018-03-31T16:31:34.973Z,74.40
2018-03-31T16:34:01.975Z,75.10
2018-03-31T16:36:28.958Z,75.30
2018-03-31T16:38:55.980Z,74.80
2018-03-31T16:41:22.970Z,73.20
2018-03-31T16:43:49.942Z,73.10
2018-03-31T16:46:16.928Z,72.50
2018-03-31T16:48:43.904Z,71.60
2018-03-31T16:51:10.889Z,71.70
2018-03-31T16:53:37.857Z,71.50
2018-03-31T16:56:04.844Z,72.00
2018-03-31T16:58:32.482Z,72.50
2018-03-31T17:00:59.411Z,72.60
2018-03-31T17:03:26.623Z,72.50
2018-03-31T17:05:53.721Z,72.70
2018-03-31T17:08:20.704Z,73.00
2018-03-31T17:10:47.666Z,73.50
2018-03-31T17:13:14.656Z,73.20
2018-03-31T17:15:41.644Z,72.40
2018-03-31T17:18:08.672Z,72.70
2018-03-31T17:20:35.655Z,73.10
2018-03-31T17:23:02.708Z,74.10
2018-03-31T17:25:30.592Z,75.50
2018-03-31T17:27:57.557Z,75.40
2018-03-31T17:30:24.527Z,73.40
2018-03-31T17:32:51.843Z,73.60
2018-03-31T17:35:19.525Z,74.90
2018-03-31T17:37:46.570Z,75.00
2018-03-31T17:40:13.554Z,74.90
2018-03-31T17:42:40.596Z,75.90
2018-03-31T17:45:07.651Z,76.70
2018-03-31T17:47:34.633Z,77.90
2018-03-31T17:50:01.805Z,78.30
2018-03-31T17:52:28.808Z,78.80
2018-03-31T17:54:56.812Z,79.20
2018-03-31T17:57:23.971Z,79.70
2018-03-31T17:59:51.013Z,80.80
2018-03-31T18:02:18.062Z,79.90
2018-03-31T18:04:45.023Z,80.20
2018-03-31T18:07:12.001Z,80.50
2018-03-31T18:09:39.005Z,80.40
2018-03-31T18:12:05.978Z,80.70
2018-03-31T18:14:32.969Z,81.00
2018-03-31T18:17:00.102Z,81.90
2018-03-31T18:19:27.839Z,83.00
2018-03-31T18:21:54.916Z,83.00
2018-03-31T18:24:22.045Z,83.20
2018-03-31T18:26:49.050Z,83.80
2018-03-31T18:29:16.026Z,84.20
2018-03-31T18:31:42.991Z,84.50
2018-03-31T18:34:10.024Z,84.60
2018-03-31T18:36:37.014Z,84.80
2018-03-31T18:39:04.012Z,85.30
2018-03-31T18:41:30.990Z,85.60
2018-03-31T18:43:58.731Z,86.40
2018-03-31T18:46:25.738Z,86.40
2018-03-31T18:48:52.743Z,86.80
2018-03-31T18:51:20.489Z,87.60
2018-03-31T18:53:47.452Z,87.50
2018-03-31T18:56:15.189Z,87.90
2018-03-31T18:58:42.179Z,88.40
2018-03-31T19:01:10.661Z,89.10
2018-03-31T19:03:37.643Z,89.00
2018-03-31T19:06:05.389Z,89.30
2018-03-31T19:08:32.445Z,89.30
2018-03-31T19:11:00.217Z,89.00
2018-03-31T19:13:27.194Z,88.80
2018-03-31T19:15:54.169Z,88.60
2018-03-31T19:18:21.136Z,88.60
2018-03-31T19:20:48.135Z,88.80
2018-03-31T19:23:15.129Z,89.40
2018-03-31T19:25:42.091Z,90.30
2018-03-31T19:28:09.087Z,90.60
2018-03-31T19:30:41.637Z,90.40
2018-03-31T19:33:08.596Z,90.90
2018-03-31T19:35:41.301Z,90.30
2018-03-31T19:38:08.271Z,90.70
2018-03-31T19:40:35.364Z,91.00
2018-03-31T19:43:02.387Z,90.90
2018-03-31T19:45:29.370Z,90.90
2018-03-31T19:47:57.139Z,91.00
2018-03-31T19:50:24.886Z,91.10
2018-03-31T19:52:51.866Z,91.10
2018-03-31T19:55:18.905Z,91.20
2018-03-31T19:57:46.711Z,91.80
2018-03-31T20:00:13.671Z,91.80
2018-03-31T20:02:40.636Z,91.90
2018-03-31T20:05:07.610Z,92.40
2018-03-31T20:07:34.614Z,92.10
2018-03-31T20:10:01.612Z,92.30
2018-03-31T20:12:28.590Z,92.40
2018-03-31T20:14:55.576Z,92.40
2018-03-31T20:17:22.567Z,92.30
2018-03-31T20:19:49.555Z,92.20
2018-03-31T20:22:16.544Z,92.20
2018-03-31T20:24:43.557Z,92.30
2018-03-31T20:27:11.324Z,92.40
2018-03-31T20:29:38.291Z,92.30
2018-03-31T20:32:06.056Z,92.40
2018-03-31T20:34:33.954Z,92.60
2018-03-31T20:37:01.873Z,92.60
2018-03-31T20:39:28.963Z,92.60
2018-03-31T20:41:55.926Z,92.60
2018-03-31T20:44:22.991Z,92.60
2018-03-31T20:46:49.963Z,92.60
2018-03-31T20:49:17.698Z,92.60
2018-03-31T20:51:44.683Z,92.60
2018-03-31T20:54:12.418Z,92.30
2018-03-31T20:56:39.402Z,92.30
2018-03-31T20:59:06.410Z,92.30
2018-03-31T21:01:33.389Z,92.20
2018-03-31T21:04:01.137Z,92.20
2018-03-31T21:06:28.158Z,92.10
2018-03-31T21:08:55.157Z,92.20
2018-03-31T21:11:22.165Z,92.30
2018-03-31T21:13:49.482Z,92.30
2018-03-31T21:16:16.629Z,92.20
2018-03-31T21:18:43.628Z,92.40
2018-03-31T21:21:11.498Z,92.70
2018-03-31T21:23:39.295Z,92.80
2018-03-31T21:26:06.256Z,92.90
2018-03-31T21:28:33.256Z,93.50
2018-03-31T21:31:01.049Z,94.20
2018-03-31T21:33:28.104Z,94.20
2018-03-31T21:35:55.145Z,94.50
2018-03-31T21:38:28.986Z,94.80
2018-03-31T21:40:55.968Z,94.90
2018-03-31T21:43:22.934Z,95.10
2018-03-31T21:45:50.086Z,94.70
2018-03-31T21:48:17.098Z,94.60
2018-03-31T21:50:44.099Z,94.40
2018-03-31T21:53:11.080Z,94.10
2018-03-31T21:55:38.092Z,94.10
2018-03-31T21:58:05.062Z,94.20
2018-03-31T22:00:32.047Z,94.20
2018-03-31T22:02:59.078Z,94.20
2018-03-31T22:05:26.814Z,94.20
2018-03-31T22:07:53.797Z,94.20
2018-03-31T22:10:21.683Z,94.00
2018-03-31T22:12:48.654Z,94.00
2018-03-31T22:15:21.171Z,93.90
2018-03-31T22:17:48.149Z,94.20
2018-03-31T22:20:15.158Z,94.20
2018-03-31T22:22:42.134Z,94.00
2018-03-31T22:25:09.110Z,94.10
2018-03-31T22:27:36.092Z,94.00
2018-03-31T22:30:03.139Z,93.90
2018-03-31T22:32:30.781Z,93.90
2018-03-31T22:34:57.756Z,94.20
2018-03-31T22:37:24.844Z,94.20
2018-03-31T22:39:51.872Z,94.40
2018-03-31T22:42:19.604Z,94.20
2018-03-31T22:44:46.678Z,94.20
2018-03-31T22:47:14.403Z,94.30
2018-03-31T22:49:41.382Z,94.20
2018-03-31T22:52:09.155Z,94.10
2018-03-31T22:54:36.119Z,94.00
2018-03-31T22:57:03.096Z,94.00
2018-03-31T22:59:30.064Z,94.00
2018-03-31T23:01:57.023Z,94.20
2018-03-31T23:04:24.770Z,94.40
2018-03-31T23:06:51.723Z,94.40
2018-03-31T23:09:19.472Z,94.80
2018-03-31T23:11:46.442Z,94.80
2018-03-31T23:14:14.184Z,94.70
2018-03-31T23:16:41.158Z,94.70
2018-03-31T23:19:08.148Z,94.70
2018-03-31T23:21:35.120Z,94.70
2018-03-31T23:24:02.111Z,94.60
2018-03-31T23:26:29.077Z,94.90
2018-03-31T23:28:56.064Z,95.80
2018-03-31T23:31:23.052Z,95.50
2018-03-31T23:33:50.058Z,95.70
2018-03-31T23:36:17.016Z,95.80
2018-03-31T23:38:44.407Z,96.10
2018-03-31T23:41:11.380Z,96.20
2018-03-31T23:43:38.342Z,96.40
2018-03-31T23:46:05.332Z,96.50
2018-03-31T23:48:32.296Z,96.70
2018-03-31T23:50:59.258Z,97.00
2018-03-31T23:53:26.236Z,97.10
2018-03-31T23:55:55.787Z,97.20
2018-03-31T23:58:22.762Z,97.20
